Time;durP1;ratioP1;P1;durP2;ratioP2;P2;SDS_P1;SDS_P2;PMS_P1;PMS_P2;Temp;Humidity;BMP_temperature;BMP_pressure;BME280_temperature;BME280_humidity;BME280_pressure;Samples;Min_cycle;Max_cycle;Signal;HPM_P1;HPM_P2
2023/04/22 00:01:42;;;;;;;29.08;12.77;;;;;;;;;;5026746;28;20128;-70
2023/04/22 00:04:07;;;;;;;27.48;12.73;;;;;;;;;;5026548;28;20410;-70
2023/04/22 00:06:33;;;;;;;31.75;12.75;;;;;;;;;;5026120;28;20049;-70
2023/04/22 00:08:59;;;;;;;26.92;12.05;;;;;;;;;;5031181;28;20044;-70
2023/04/22 00:11:25;;;;;;;28.65;12.32;;;;;;;;;;5044450;28;20418;-70
2023/04/22 00:13:50;;;;;;;29.52;12.77;;;;;;;;;;5045149;28;20056;-70
2023/04/22 00:16:15;;;;;;;28.98;13.05;;;;;;;;;;5045154;28;20560;-70
2023/04/22 00:18:41;;;;;;;29.00;11.85;;;;;;;;;;5044112;28;20025;-70
2023/04/22 00:21:07;;;;;;;27.40;12.18;;;;;;;;;;5046636;28;20013;-70
2023/04/22 00:23:32;;;;;;;28.85;11.95;;;;;;;;;;5042639;28;20030;-70
2023/04/22 00:25:59;;;;;;;25.85;11.82;;;;;;;;;;5025681;28;20040;-71
2023/04/22 00:28:24;;;;;;;29.77;12.20;;;;;;;;;;5026256;28;20099;-70
2023/04/22 00:30:50;;;;;;;24.75;11.48;;;;;;;;;;5025723;28;20038;-70
2023/04/22 00:33:15;;;;;;;28.30;11.85;;;;;;;;;;5024928;28;20044;-70
2023/04/22 00:35:40;;;;;;;26.63;12.23;;;;;;;;;;5030152;28;20033;-70
2023/04/22 00:38:06;;;;;;;23.75;10.90;;;;;;;;;;5045976;28;20044;-70
2023/04/22 00:40:31;;;;;;;27.25;10.68;;;;;;;;;;5045933;28;20509;-70
2023/04/22 00:42:58;;;;;;;23.42;10.93;;;;;;;;;;5078142;28;20457;-70
2023/04/22 00:45:25;;;;;;;22.00;10.35;;;;;;;;;;5030784;28;20041;-70
2023/04/22 00:47:51;;;;;;;25.85;11.95;;;;;;;;;;5025984;28;20037;-70
2023/04/22 00:50:17;;;;;;;26.13;11.18;;;;;;;;;;5025400;28;20026;-70
2023/04/22 00:52:42;;;;;;;25.45;10.73;;;;;;;;;;5025535;28;20056;-70
2023/04/22 00:55:08;;;;;;;25.33;11.05;;;;;;;;;;5041210;28;20032;-70
2023/04/22 00:57:34;;;;;;;26.25;11.32;;;;;;;;;;5031898;28;20040;-70
2023/04/22 01:00:00;;;;;;;22.90;11.60;;;;;;;;;;5046197;28;20371;-70
2023/04/22 01:02:27;;;;;;;23.95;10.57;;;;;;;;;;5043806;28;20040;-70
2023/04/22 01:04:55;;;;;;;21.50;10.15;;;;;;;;;;5040496;28;20033;-71
2023/04/22 01:07:20;;;;;;;24.15;10.18;;;;;;;;;;5045862;28;20102;-70
2023/04/22 01:09:46;;;;;;;26.50;10.82;;;;;;;;;;5053963;28;20803;-70
2023/04/22 01:12:12;;;;;;;22.25;10.18;;;;;;;;;;5066660;28;20112;-70
2023/04/22 01:14:37;;;;;;;20.17;9.65;;;;;;;;;;5070986;28;20070;-70
2023/04/22 01:17:03;;;;;;;21.55;10.25;;;;;;;;;;5053891;28;20033;-70
2023/04/22 01:19:28;;;;;;;26.52;10.48;;;;;;;;;;5045217;28;20421;-70
2023/04/22 01:21:55;;;;;;;19.65;9.50;;;;;;;;;;5045833;28;20025;-70
2023/04/22 01:24:20;;;;;;;21.75;9.73;;;;;;;;;;5045150;28;20858;-71
2023/04/22 01:26:47;;;;;;;24.45;9.60;;;;;;;;;;5045020;28;20067;-70
2023/04/22 01:29:13;;;;;;;26.17;10.15;;;;;;;;;;5044918;28;20056;-71
2023/04/22 01:31:39;;;;;;;20.70;8.85;;;;;;;;;;5045140;28;20124;-70
2023/04/22 01:34:05;;;;;;;20.35;9.60;;;;;;;;;;5045551;28;20117;-70
2023/04/22 01:36:32;;;;;;;20.63;8.65;;;;;;;;;;5041933;28;20120;-70
2023/04/22 01:38:58;;;;;;;18.67;9.15;;;;;;;;;;5039724;28;20032;-70
2023/04/22 01:41:24;;;;;;;19.17;8.73;;;;;;;;;;5076310;28;20025;-71
2023/04/22 01:43:52;;;;;;;24.75;10.25;;;;;;;;;;5045168;28;20118;-70
2023/04/22 01:46:17;;;;;;;21.27;9.35;;;;;;;;;;5043677;28;20032;-70
2023/04/22 01:48:49;;;;;;;17.08;8.88;;;;;;;;;;5044887;28;20035;-70
2023/04/22 01:51:15;;;;;;;21.77;8.95;;;;;;;;;;5045350;28;20452;-70
2023/04/22 01:53:40;;;;;;;20.15;9.63;;;;;;;;;;5045038;28;20120;-71
2023/04/22 01:56:06;;;;;;;21.25;9.45;;;;;;;;;;5044962;28;20040;-71
2023/04/22 01:58:32;;;;;;;18.27;8.98;;;;;;;;;;5041548;28;20407;-71
2023/04/22 02:00:57;;;;;;;22.52;10.30;;;;;;;;;;5036625;28;20033;-70
2023/04/22 02:03:23;;;;;;;20.52;9.57;;;;;;;;;;5044995;28;20089;-69
2023/04/22 02:05:48;;;;;;;22.52;9.95;;;;;;;;;;5045317;28;20079;-70
2023/04/22 02:08:13;;;;;;;20.83;9.70;;;;;;;;;;5044540;28;20037;-70
2023/04/22 02:10:39;;;;;;;28.35;11.00;;;;;;;;;;5059994;28;20036;-70
2023/04/22 02:13:04;;;;;;;19.27;9.43;;;;;;;;;;5064502;28;20032;-70
2023/04/22 02:15:30;;;;;;;17.92;8.77;;;;;;;;;;5057126;28;20488;-70
2023/04/22 02:17:55;;;;;;;17.25;8.07;;;;;;;;;;5044740;28;20079;-70
2023/04/22 02:20:21;;;;;;;20.95;8.65;;;;;;;;;;5044296;28;20040;-70
2023/04/22 02:22:46;;;;;;;17.08;7.75;;;;;;;;;;5042976;28;20070;-70
2023/04/22 02:25:12;;;;;;;21.02;9.13;;;;;;;;;;5044524;28;20102;-70
2023/04/22 02:27:38;;;;;;;22.02;9.10;;;;;;;;;;5043339;28;20021;-70
2023/04/22 02:30:05;;;;;;;20.40;9.43;;;;;;;;;;5045117;28;20548;-70
2023/04/22 02:32:31;;;;;;;17.52;8.68;;;;;;;;;;5044398;28;20425;-70
2023/04/22 02:34:56;;;;;;;19.67;9.55;;;;;;;;;;5045442;28;20124;-70
2023/04/22 02:37:21;;;;;;;19.02;9.38;;;;;;;;;;5050943;28;20025;-70
2023/04/22 02:39:48;;;;;;;20.77;9.20;;;;;;;;;;5057979;28;20091;-70
2023/04/22 02:42:13;;;;;;;17.75;9.10;;;;;;;;;;5049111;28;20075;-70
2023/04/22 02:44:39;;;;;;;20.02;8.90;;;;;;;;;;5048332;28;20029;-71
2023/04/22 02:47:06;;;;;;;20.13;9.00;;;;;;;;;;5046366;28;20041;-70
2023/04/22 02:49:31;;;;;;;20.80;9.98;;;;;;;;;;5048136;28;20033;-70
2023/04/22 02:51:57;;;;;;;21.70;9.68;;;;;;;;;;5047453;28;20052;-70
2023/04/22 02:54:22;;;;;;;18.27;8.80;;;;;;;;;;5048219;28;20033;-71
2023/04/22 02:56:47;;;;;;;19.55;9.80;;;;;;;;;;5047889;28;20040;-70
2023/04/22 02:59:13;;;;;;;19.60;8.45;;;;;;;;;;5047554;28;20178;-70
2023/04/22 03:01:38;;;;;;;19.27;8.80;;;;;;;;;;5047727;28;20517;-70
2023/04/22 03:04:03;;;;;;;17.45;8.60;;;;;;;;;;5047653;28;20414;-70
2023/04/22 03:06:29;;;;;;;21.25;8.88;;;;;;;;;;5079381;28;20025;-70
2023/04/22 03:08:55;;;;;;;21.17;9.50;;;;;;;;;;5048755;28;20056;-70
2023/04/22 03:11:20;;;;;;;22.42;9.07;;;;;;;;;;5062792;28;20056;-70
2023/04/22 03:13:45;;;;;;;16.52;9.18;;;;;;;;;;5033383;28;20546;-70
2023/04/22 03:16:11;;;;;;;23.58;9.48;;;;;;;;;;5035853;28;20051;-70
2023/04/22 03:18:36;;;;;;;21.35;9.73;;;;;;;;;;5047557;28;20025;-70
2023/04/22 03:21:02;;;;;;;19.35;9.10;;;;;;;;;;5047341;28;20020;-70
2023/04/22 03:23:27;;;;;;;20.08;9.90;;;;;;;;;;5047559;28;20545;-70
2023/04/22 03:25:53;;;;;;;18.67;9.02;;;;;;;;;;5042249;28;20040;-71
2023/04/22 03:28:18;;;;;;;20.80;9.45;;;;;;;;;;5045483;28;20510;-70
2023/04/22 03:30:43;;;;;;;24.58;10.10;;;;;;;;;;5046327;28;20032;-70
2023/04/22 03:33:10;;;;;;;18.88;9.00;;;;;;;;;;5047832;28;20032;-70
2023/04/22 03:35:35;;;;;;;21.58;10.00;;;;;;;;;;5047137;28;20045;-70
2023/04/22 03:38:01;;;;;;;20.65;9.63;;;;;;;;;;5043644;28;20029;-70
2023/04/22 03:40:26;;;;;;;27.13;10.68;;;;;;;;;;5046472;28;20036;-70
2023/04/22 03:42:51;;;;;;;25.25;10.65;;;;;;;;;;5046446;28;20502;-70
2023/04/22 03:45:17;;;;;;;21.17;9.43;;;;;;;;;;5047243;28;20037;-70
2023/04/22 03:47:42;;;;;;;22.08;10.13;;;;;;;;;;5045289;28;20048;-70
2023/04/22 03:50:08;;;;;;;21.55;9.55;;;;;;;;;;5045999;28;20032;-70
2023/04/22 03:52:33;;;;;;;21.58;10.38;;;;;;;;;;5045633;28;20079;-70
2023/04/22 03:54:59;;;;;;;21.58;10.43;;;;;;;;;;5044682;28;20028;-70
2023/04/22 03:57:24;;;;;;;24.20;9.60;;;;;;;;;;5047452;28;20070;-69
2023/04/22 03:59:49;;;;;;;22.27;10.23;;;;;;;;;;5051813;28;20017;-70
2023/04/22 04:02:15;;;;;;;24.63;10.70;;;;;;;;;;5054042;28;20114;-70
2023/04/22 04:04:40;;;;;;;24.27;10.07;;;;;;;;;;5045093;28;20095;-70
2023/04/22 04:07:06;;;;;;;23.23;10.52;;;;;;;;;;5044428;28;20036;-70
2023/04/22 04:09:31;;;;;;;21.70;9.07;;;;;;;;;;5052239;28;20107;-70
2023/04/22 04:11:57;;;;;;;21.08;9.98;;;;;;;;;;5064886;28;20020;-71
2023/04/22 04:14:22;;;;;;;24.35;10.38;;;;;;;;;;5043372;28;20056;-70
2023/04/22 04:16:47;;;;;;;25.25;11.18;;;;;;;;;;5045895;28;20048;-71
2023/04/22 04:19:13;;;;;;;24.95;10.43;;;;;;;;;;5046413;28;20095;-70
2023/04/22 04:21:38;;;;;;;24.40;10.65;;;;;;;;;;5044541;28;20028;-70
2023/04/22 04:24:05;;;;;;;25.05;10.57;;;;;;;;;;5042967;28;20041;-70
2023/04/22 04:26:31;;;;;;;21.38;10.25;;;;;;;;;;5041612;28;20041;-70
2023/04/22 04:28:57;;;;;;;24.73;10.65;;;;;;;;;;5045526;28;20067;-70
2023/04/22 04:31:23;;;;;;;24.77;11.48;;;;;;;;;;5045737;28;20521;-70
2023/04/22 04:33:49;;;;;;;25.40;11.45;;;;;;;;;;5041090;28;20038;-70
2023/04/22 04:36:15;;;;;;;24.30;10.98;;;;;;;;;;5039545;28;20036;-70
2023/04/22 04:38:40;;;;;;;25.00;11.98;;;;;;;;;;5045679;28;20071;-70
2023/04/22 04:41:08;;;;;;;27.48;12.02;;;;;;;;;;5045342;28;20041;-70
2023/04/22 04:43:34;;;;;;;22.23;10.93;;;;;;;;;;5045110;28;20063;-70
2023/04/22 04:46:00;;;;;;;29.30;13.27;;;;;;;;;;5044824;28;20036;-71
2023/04/22 04:48:25;;;;;;;25.95;12.48;;;;;;;;;;5044562;28;20025;-70
2023/04/22 04:50:53;;;;;;;27.05;11.57;;;;;;;;;;5045869;28;20032;-71
2023/04/22 04:53:20;;;;;;;27.00;12.35;;;;;;;;;;5045260;28;20037;-71
2023/04/22 04:55:45;;;;;;;27.40;11.93;;;;;;;;;;5045031;28;20371;-70
2023/04/22 04:58:11;;;;;;;22.10;10.65;;;;;;;;;;5045808;28;20038;-70
2023/04/22 05:00:36;;;;;;;26.15;11.25;;;;;;;;;;5043502;28;20170;-70
2023/04/22 05:03:01;;;;;;;28.17;12.07;;;;;;;;;;5046016;28;20098;-71
2023/04/22 05:05:28;;;;;;;29.00;12.32;;;;;;;;;;5040351;28;20049;-70
2023/04/22 05:07:53;;;;;;;27.73;11.48;;;;;;;;;;5040276;28;20056;-70
2023/04/22 05:10:20;;;;;;;27.65;12.30;;;;;;;;;;5051408;28;20170;-70
2023/04/22 05:12:46;;;;;;;27.95;12.43;;;;;;;;;;5062920;28;20048;-70
2023/04/22 05:15:12;;;;;;;27.83;13.02;;;;;;;;;;5045911;28;20048;-70
2023/04/22 05:17:38;;;;;;;30.13;12.25;;;;;;;;;;5046107;28;20036;-70
2023/04/22 05:20:03;;;;;;;27.25;12.38;;;;;;;;;;5046379;28;20048;-70
2023/04/22 05:22:29;;;;;;;35.10;12.38;;;;;;;;;;5049732;28;20029;-70
2023/04/22 05:24:54;;;;;;;31.13;13.90;;;;;;;;;;5055014;28;20029;-70
2023/04/22 05:27:20;;;;;;;30.40;13.50;;;;;;;;;;5047848;28;20471;-71
2023/04/22 05:29:45;;;;;;;28.75;12.98;;;;;;;;;;5046010;28;20106;-70
2023/04/22 05:32:10;;;;;;;33.63;14.15;;;;;;;;;;5044854;28;20421;-72
2023/04/22 05:34:36;;;;;;;37.70;15.52;;;;;;;;;;5041008;28;20033;-70
2023/04/22 05:37:02;;;;;;;33.53;13.50;;;;;;;;;;5038192;28;20075;-70
2023/04/22 05:39:28;;;;;;;36.42;14.10;;;;;;;;;;5044553;28;20029;-70
2023/04/22 05:41:54;;;;;;;30.75;13.45;;;;;;;;;;5045243;28;20033;-70
2023/04/22 05:44:19;;;;;;;34.20;15.15;;;;;;;;;;5040198;28;20422;-70
2023/04/22 05:46:45;;;;;;;33.13;14.45;;;;;;;;;;5043638;28;20067;-70
2023/04/22 05:49:11;;;;;;;31.30;14.60;;;;;;;;;;5045137;28;20028;-70
2023/04/22 05:51:36;;;;;;;32.60;14.25;;;;;;;;;;5042316;28;20052;-70
2023/04/22 05:54:01;;;;;;;38.85;16.10;;;;;;;;;;5036935;28;20045;-70
2023/04/22 05:56:27;;;;;;;30.10;14.25;;;;;;;;;;5034113;28;20033;-70
2023/04/22 05:58:52;;;;;;;33.13;14.02;;;;;;;;;;5045547;28;20044;-70
2023/04/22 06:01:17;;;;;;;32.05;14.65;;;;;;;;;;5064507;28;20032;-70
2023/04/22 06:03:43;;;;;;;36.00;15.38;;;;;;;;;;5064721;28;20097;-70
2023/04/22 06:06:08;;;;;;;35.20;15.57;;;;;;;;;;5053492;28;20032;-70
2023/04/22 06:08:33;;;;;;;33.40;15.93;;;;;;;;;;5044810;28;20037;-70
2023/04/22 06:10:59;;;;;;;32.40;15.32;;;;;;;;;;5062893;28;20398;-70
2023/04/22 06:13:25;;;;;;;37.15;15.30;;;;;;;;;;5068209;28;20036;-70
2023/04/22 06:15:50;;;;;;;41.67;16.55;;;;;;;;;;5050311;28;20136;-70
2023/04/22 06:18:16;;;;;;;43.20;17.27;;;;;;;;;;5048812;28;20100;-70
2023/04/22 06:20:41;;;;;;;47.10;17.92;;;;;;;;;;5048243;28;20040;-72
2023/04/22 06:23:07;;;;;;;40.28;17.50;;;;;;;;;;5047748;28;20033;-70
2023/04/22 06:25:32;;;;;;;37.42;16.45;;;;;;;;;;5040176;28;20052;-70
2023/04/22 06:27:58;;;;;;;42.15;16.65;;;;;;;;;;5046490;28;20029;-70
2023/04/22 06:30:24;;;;;;;41.92;17.10;;;;;;;;;;5047585;28;20028;-70
2023/04/22 06:32:50;;;;;;;37.03;16.17;;;;;;;;;;5048423;28;20025;-70
2023/04/22 06:35:16;;;;;;;39.53;16.45;;;;;;;;;;5048284;28;20048;-70
2023/04/22 06:37:41;;;;;;;42.35;17.02;;;;;;;;;;5046908;28;20040;-71
2023/04/22 06:40:07;;;;;;;43.72;16.80;;;;;;;;;;5048039;28;20799;-70
2023/04/22 06:42:33;;;;;;;37.50;15.38;;;;;;;;;;5049103;28;20099;-70
2023/04/22 06:44:58;;;;;;;35.78;16.23;;;;;;;;;;5051162;28;20032;-70
2023/04/22 06:47:24;;;;;;;35.70;15.65;;;;;;;;;;5055093;28;20060;-71
2023/04/22 06:49:49;;;;;;;37.00;16.08;;;;;;;;;;5048967;28;20029;-70
2023/04/22 06:52:15;;;;;;;37.22;18.00;;;;;;;;;;5047172;28;20071;-70
2023/04/22 06:54:40;;;;;;;38.90;16.27;;;;;;;;;;5047755;28;20476;-70
2023/04/22 06:57:06;;;;;;;38.20;15.98;;;;;;;;;;5047486;28;20024;-70
2023/04/22 06:59:32;;;;;;;34.53;14.35;;;;;;;;;;5047307;28;20095;-70
2023/04/22 07:01:57;;;;;;;41.45;16.38;;;;;;;;;;5047137;28;20033;-70
2023/04/22 07:04:23;;;;;;;38.67;16.88;;;;;;;;;;5046926;28;20055;-70
2023/04/22 07:06:48;;;;;;;33.40;15.13;;;;;;;;;;5047453;28;20074;-70
2023/04/22 07:09:14;;;;;;;31.98;15.10;;;;;;;;;;5051501;28;20096;-70
2023/04/22 07:11:39;;;;;;;37.92;16.00;;;;;;;;;;5046683;28;20520;-71
2023/04/22 07:14:04;;;;;;;36.08;14.93;;;;;;;;;;5042783;28;20041;-70
2023/04/22 07:16:30;;;;;;;34.33;15.50;;;;;;;;;;5042760;28;20114;-70
2023/04/22 07:18:55;;;;;;;33.50;15.38;;;;;;;;;;5029733;28;20036;-71
2023/04/22 07:21:20;;;;;;;35.05;16.08;;;;;;;;;;5059439;28;20026;-71
2023/04/22 07:23:46;;;;;;;38.00;17.15;;;;;;;;;;5025514;28;20030;-71
2023/04/22 07:26:11;;;;;;;31.67;15.10;;;;;;;;;;5026073;28;20060;-71
2023/04/22 07:28:37;;;;;;;35.50;15.05;;;;;;;;;;5026666;28;20083;-71
2023/04/22 07:31:02;;;;;;;36.42;15.45;;;;;;;;;;5026654;28;20025;-71
2023/04/22 07:33:27;;;;;;;34.33;14.27;;;;;;;;;;5025913;28;20087;-70
2023/04/22 07:35:53;;;;;;;31.48;14.10;;;;;;;;;;5027056;28;20033;-72
2023/04/22 07:38:19;;;;;;;34.13;15.23;;;;;;;;;;5026505;28;20721;-71
2023/04/22 07:40:44;;;;;;;34.85;15.27;;;;;;;;;;5065714;28;20533;-71
2023/04/22 07:43:10;;;;;;;34.22;15.75;;;;;;;;;;5024559;28;20030;-72
2023/04/22 07:45:35;;;;;;;33.28;15.15;;;;;;;;;;5041982;28;20124;-70
2023/04/22 07:48:00;;;;;;;33.20;13.77;;;;;;;;;;5046578;28;20082;-71
2023/04/22 07:50:26;;;;;;;31.73;14.10;;;;;;;;;;5044682;28;20037;-70
2023/04/22 07:52:51;;;;;;;27.90;13.77;;;;;;;;;;5044384;28;20033;-70
2023/04/22 07:55:17;;;;;;;32.67;13.82;;;;;;;;;;5043600;28;20166;-71
2023/04/22 07:57:42;;;;;;;28.80;14.13;;;;;;;;;;5044509;28;20636;-70
2023/04/22 08:00:09;;;;;;;27.95;13.90;;;;;;;;;;5078977;28;20033;-71
2023/04/22 08:02:34;;;;;;;28.73;13.07;;;;;;;;;;5046725;28;20028;-70
2023/04/22 08:05:00;;;;;;;28.63;13.52;;;;;;;;;;5048111;28;20029;-71
2023/04/22 08:07:26;;;;;;;27.27;12.40;;;;;;;;;;5048946;28;20044;-70
2023/04/22 08:09:51;;;;;;;24.88;12.60;;;;;;;;;;5050138;28;20037;-70
2023/04/22 08:12:17;;;;;;;23.73;11.30;;;;;;;;;;5040989;28;20040;-70
2023/04/22 08:14:42;;;;;;;26.05;12.05;;;;;;;;;;5035885;28;20051;-70
2023/04/22 08:17:08;;;;;;;23.80;11.27;;;;;;;;;;5037879;28;20067;-69
2023/04/22 08:19:33;;;;;;;26.55;12.45;;;;;;;;;;5035179;28;20051;-70
2023/04/22 08:21:58;;;;;;;24.90;12.20;;;;;;;;;;5036075;28;20059;-70
2023/04/22 08:24:24;;;;;;;22.60;11.30;;;;;;;;;;5029677;28;20221;-70
2023/04/22 08:26:49;;;;;;;23.45;10.98;;;;;;;;;;5034349;28;20040;-70
2023/04/22 08:29:15;;;;;;;20.67;10.65;;;;;;;;;;5024050;28;20048;-70
2023/04/22 08:31:40;;;;;;;23.70;10.93;;;;;;;;;;5025344;28;20124;-70
2023/04/22 08:34:06;;;;;;;23.70;12.48;;;;;;;;;;5045080;28;20709;-72
2023/04/22 08:36:31;;;;;;;22.00;11.65;;;;;;;;;;5038911;28;20024;-69
2023/04/22 08:38:57;;;;;;;26.88;12.90;;;;;;;;;;5040163;28;20020;-71
2023/04/22 08:41:25;;;;;;;28.90;13.38;;;;;;;;;;5041770;28;20256;-71
2023/04/22 08:43:52;;;;;;;25.17;11.93;;;;;;;;;;5039595;28;20025;-71
2023/04/22 08:46:20;;;;;;;24.63;11.50;;;;;;;;;;5041427;28;20029;-71
2023/04/22 08:48:50;;;;;;;24.00;11.52;;;;;;;;;;5045292;28;20490;-72
2023/04/22 08:51:16;;;;;;;25.10;12.60;;;;;;;;;;5045311;28;20032;-71
2023/04/22 08:53:44;;;;;;;25.25;13.02;;;;;;;;;;5025627;28;20120;-71
2023/04/22 08:56:13;;;;;;;26.98;13.60;;;;;;;;;;5042814;28;20579;-71
2023/04/22 08:58:42;;;;;;;26.55;12.85;;;;;;;;;;5048114;28;20032;-71
2023/04/22 09:01:08;;;;;;;29.73;12.82;;;;;;;;;;5041310;28;20049;-71
2023/04/22 09:03:36;;;;;;;24.55;12.60;;;;;;;;;;5017398;28;20020;-73
2023/04/22 09:06:05;;;;;;;23.67;12.30;;;;;;;;;;4994977;28;20071;-73
2023/04/22 09:08:34;;;;;;;28.77;12.00;;;;;;;;;;4994767;28;20029;-72
2023/04/22 09:10:59;;;;;;;24.92;11.95;;;;;;;;;;5012628;28;20678;-73
2023/04/22 09:13:25;;;;;;;31.52;13.07;;;;;;;;;;5013521;28;20565;-73
2023/04/22 09:15:50;;;;;;;29.77;13.18;;;;;;;;;;5006516;28;20134;-72
2023/04/22 09:18:18;;;;;;;25.52;13.20;;;;;;;;;;4995396;28;20075;-72
2023/04/22 09:20:45;;;;;;;29.40;13.30;;;;;;;;;;5000494;28;20316;-72
2023/04/22 09:23:11;;;;;;;30.88;12.65;;;;;;;;;;5005352;28;20037;-72
2023/04/22 09:25:37;;;;;;;28.73;13.23;;;;;;;;;;4995438;28;20947;-72
2023/04/22 09:28:02;;;;;;;26.35;11.63;;;;;;;;;;5006473;28;20100;-72
2023/04/22 09:30:33;;;;;;;21.55;10.43;;;;;;;;;;5008039;28;20590;-72
2023/04/22 09:33:00;;;;;;;22.73;10.35;;;;;;;;;;4997734;28;20120;-72
2023/04/22 09:35:26;;;;;;;25.42;12.40;;;;;;;;;;4988077;28;20032;-72
2023/04/22 09:37:52;;;;;;;24.35;11.52;;;;;;;;;;4992354;28;20040;-72
2023/04/22 09:40:18;;;;;;;31.27;14.55;;;;;;;;;;4993477;28;20044;-72
2023/04/22 09:42:51;;;;;;;32.08;13.55;;;;;;;;;;4994253;28;20534;-71
2023/04/22 09:45:28;;;;;;;34.58;16.20;;;;;;;;;;4992560;28;20405;-72
2023/04/22 09:47:55;;;;;;;36.67;15.57;;;;;;;;;;4996164;28;20056;-72
2023/04/22 09:50:23;;;;;;;35.17;15.27;;;;;;;;;;4996932;28;20037;-72
2023/04/22 09:52:58;;;;;;;34.78;15.38;;;;;;;;;;4992831;28;20029;-72
2023/04/22 09:55:24;;;;;;;43.15;17.42;;;;;;;;;;4995926;28;20610;-72
2023/04/22 09:57:52;;;;;;;34.22;15.60;;;;;;;;;;4995341;28;20060;-72
2023/04/22 10:00:18;;;;;;;36.30;15.23;;;;;;;;;;4995003;28;20033;-72
2023/04/22 10:02:43;;;;;;;35.70;15.90;;;;;;;;;;4990149;28;20531;-71
2023/04/22 10:05:10;;;;;;;36.58;15.23;;;;;;;;;;4994853;28;20629;-71
2023/04/22 10:07:38;;;;;;;38.47;16.88;;;;;;;;;;4986217;28;20374;-71
2023/04/22 10:10:07;;;;;;;36.30;15.55;;;;;;;;;;4996923;28;20511;-71
2023/04/22 10:12:34;;;;;;;37.70;16.20;;;;;;;;;;5034315;28;20529;-72
2023/04/22 10:15:00;;;;;;;40.45;16.85;;;;;;;;;;5046810;28;20041;-72
2023/04/22 10:17:29;;;;;;;36.55;16.48;;;;;;;;;;5047810;28;20037;-72
2023/04/22 10:19:55;;;;;;;42.67;17.35;;;;;;;;;;5046514;28;20124;-72
2023/04/22 10:22:20;;;;;;;41.13;17.40;;;;;;;;;;5047154;28;20021;-72
2023/04/22 10:24:46;;;;;;;45.92;19.00;;;;;;;;;;5048738;28;20063;-72
2023/04/22 10:27:11;;;;;;;43.05;17.80;;;;;;;;;;5048595;28;20029;-73
2023/04/22 10:29:40;;;;;;;44.05;17.88;;;;;;;;;;5048877;28;20200;-72
2023/04/22 10:32:26;;;;;;;41.75;16.85;;;;;;;;;;5043020;28;20140;-73
2023/04/22 10:35:07;;;;;;;46.10;18.50;;;;;;;;;;5026939;28;20045;-72
2023/04/22 10:37:33;;;;;;;43.15;17.70;;;;;;;;;;5027805;28;20045;-72
2023/04/22 10:40:12;;;;;;;42.17;17.73;;;;;;;;;;5032068;28;20068;-71
2023/04/22 10:42:41;;;;;;;40.97;17.52;;;;;;;;;;5044100;28;20075;-71
2023/04/22 10:45:12;;;;;;;42.45;17.45;;;;;;;;;;5048247;28;20478;-72
2023/04/22 10:47:39;;;;;;;39.53;18.30;;;;;;;;;;5038717;28;20045;-71
2023/04/22 10:50:15;;;;;;;43.28;18.13;;;;;;;;;;5030336;28;20033;-71
2023/04/22 10:52:42;;;;;;;38.00;17.50;;;;;;;;;;5036312;28;20169;-72
2023/04/22 10:55:08;;;;;;;45.88;18.90;;;;;;;;;;5036105;28;20589;-71
2023/04/22 10:57:42;;;;;;;42.45;17.83;;;;;;;;;;5027841;28;20033;-71
2023/04/22 11:00:38;;;;;;;43.75;17.85;;;;;;;;;;5027176;28;20026;-72
2023/04/22 11:03:03;;;;;;;44.78;18.90;;;;;;;;;;5020738;28;20040;-72
2023/04/22 11:05:28;;;;;;;42.58;18.60;;;;;;;;;;5026641;28;20046;-71
2023/04/22 11:08:00;;;;;;;37.97;16.35;;;;;;;;;;5026519;28;20406;-72
2023/04/22 11:10:42;;;;;;;36.60;16.92;;;;;;;;;;5054046;28;20078;-71
2023/04/22 11:13:09;;;;;;;34.05;15.70;;;;;;;;;;5066477;28;20044;-72
2023/04/22 11:15:36;;;;;;;35.15;16.48;;;;;;;;;;5060316;28;20072;-71
2023/04/22 11:18:06;;;;;;;37.78;17.60;;;;;;;;;;5046931;28;20508;-72
2023/04/22 11:20:31;;;;;;;44.83;19.65;;;;;;;;;;5046391;28;20044;-72
2023/04/22 11:22:57;;;;;;;40.85;17.40;;;;;;;;;;5044847;28;20108;-71
2023/04/22 11:25:24;;;;;;;40.83;18.02;;;;;;;;;;5045662;28;20036;-71
2023/04/22 11:27:51;;;;;;;36.72;16.95;;;;;;;;;;5045840;28;20064;-71
2023/04/22 11:30:19;;;;;;;39.40;17.38;;;;;;;;;;5046410;28;20200;-72
2023/04/22 11:32:49;;;;;;;38.08;17.83;;;;;;;;;;5040333;28;20053;-71
2023/04/22 11:35:20;;;;;;;37.63;16.88;;;;;;;;;;5028911;28;20112;-72
2023/04/22 11:37:48;;;;;;;36.25;16.92;;;;;;;;;;5041283;28;20037;-72
2023/04/22 11:40:20;;;;;;;38.40;16.60;;;;;;;;;;5046203;28;20063;-73
2023/04/22 11:42:47;;;;;;;41.53;17.87;;;;;;;;;;5046986;28;20029;-72
2023/04/22 11:45:12;;;;;;;36.13;15.95;;;;;;;;;;5044192;28;20273;-72
2023/04/22 11:47:39;;;;;;;36.58;16.02;;;;;;;;;;5045973;28;20041;-72
2023/04/22 11:50:08;;;;;;;35.70;16.25;;;;;;;;;;5047133;28;20041;-72
2023/04/22 11:52:46;;;;;;;37.88;17.27;;;;;;;;;;5043966;28;20171;-72
2023/04/22 11:55:20;;;;;;;39.63;17.23;;;;;;;;;;5046148;28;20033;-72
2023/04/22 11:57:51;;;;;;;39.55;16.73;;;;;;;;;;5046645;28;20049;-72
2023/04/22 12:00:17;;;;;;;38.67;17.35;;;;;;;;;;5047909;28;20024;-71
2023/04/22 12:02:53;;;;;;;33.42;15.93;;;;;;;;;;5048479;28;20044;-72
2023/04/22 12:05:19;;;;;;;34.03;15.82;;;;;;;;;;5065832;28;20040;-73
2023/04/22 12:07:44;;;;;;;34.10;15.90;;;;;;;;;;5060391;28;20032;-72
2023/04/22 12:10:10;;;;;;;35.13;16.30;;;;;;;;;;5032519;28;20045;-71
2023/04/22 12:12:38;;;;;;;30.83;14.23;;;;;;;;;;5042655;28;20530;-72
2023/04/22 12:15:10;;;;;;;31.45;15.98;;;;;;;;;;5044133;28;20059;-73
2023/04/22 12:17:37;;;;;;;36.78;16.50;;;;;;;;;;5052342;28;20053;-72
2023/04/22 12:20:04;;;;;;;33.10;14.85;;;;;;;;;;5065965;28;20060;-73
2023/04/22 12:22:32;;;;;;;33.33;16.08;;;;;;;;;;5065515;28;20056;-74
2023/04/22 12:25:00;;;;;;;37.80;16.67;;;;;;;;;;5065550;28;20032;-73
2023/04/22 12:27:26;;;;;;;39.85;16.58;;;;;;;;;;5065840;28;20032;-72
2023/04/22 12:29:56;;;;;;;36.28;16.52;;;;;;;;;;5065505;28;20036;-73
2023/04/22 12:32:24;;;;;;;36.83;16.40;;;;;;;;;;5064019;28;20032;-73
2023/04/22 12:34:49;;;;;;;38.38;16.35;;;;;;;;;;5065980;28;20033;-75
2023/04/22 12:37:16;;;;;;;37.20;16.80;;;;;;;;;;5063799;28;20025;-74
2023/04/22 12:39:42;;;;;;;33.63;15.10;;;;;;;;;;5064932;28;20028;-73
2023/04/22 12:42:07;;;;;;;36.85;16.98;;;;;;;;;;5051745;28;20442;-72
2023/04/22 12:44:33;;;;;;;36.95;15.10;;;;;;;;;;5044523;28;20529;-73
2023/04/22 12:46:58;;;;;;;35.00;15.35;;;;;;;;;;5045130;28;20071;-74
2023/04/22 12:49:24;;;;;;;33.15;14.65;;;;;;;;;;5043226;28;20056;-74
2023/04/22 12:51:50;;;;;;;33.28;14.73;;;;;;;;;;5044757;28;20762;-73
2023/04/22 12:54:16;;;;;;;30.23;13.93;;;;;;;;;;5045581;28;20036;-74
2023/04/22 12:56:42;;;;;;;30.83;14.38;;;;;;;;;;5045043;28;20037;-73
2023/04/22 12:59:08;;;;;;;29.33;13.73;;;;;;;;;;5044373;28;20647;-73
2023/04/22 13:01:33;;;;;;;24.65;11.75;;;;;;;;;;5043773;28;20116;-73
2023/04/22 13:03:58;;;;;;;29.02;12.75;;;;;;;;;;5044229;28;20032;-72
2023/04/22 13:06:24;;;;;;;29.77;13.95;;;;;;;;;;5043691;28;20033;-72
2023/04/22 13:08:49;;;;;;;29.45;13.50;;;;;;;;;;5045209;28;20021;-74
2023/04/22 13:11:15;;;;;;;25.27;12.27;;;;;;;;;;5057604;28;20032;-73
2023/04/22 13:13:40;;;;;;;26.95;13.18;;;;;;;;;;5046186;28;20060;-74
2023/04/22 13:16:05;;;;;;;26.40;13.63;;;;;;;;;;5033326;28;20038;-73
2023/04/22 13:18:31;;;;;;;27.63;12.75;;;;;;;;;;5024661;28;20037;-73
2023/04/22 13:20:56;;;;;;;29.13;13.50;;;;;;;;;;5022842;28;20021;-72
2023/04/22 13:23:24;;;;;;;27.02;12.88;;;;;;;;;;5024558;28;20040;-73
2023/04/22 13:25:51;;;;;;;31.98;14.77;;;;;;;;;;5023296;28;20088;-73
2023/04/22 13:28:17;;;;;;;27.63;12.65;;;;;;;;;;5024382;28;20029;-72
2023/04/22 13:30:42;;;;;;;26.52;13.40;;;;;;;;;;5024971;28;20045;-72
2023/04/22 13:33:08;;;;;;;28.13;13.43;;;;;;;;;;5024422;28;20040;-72
2023/04/22 13:35:33;;;;;;;26.90;13.00;;;;;;;;;;5040225;28;20039;-72
2023/04/22 13:37:58;;;;;;;27.92;13.40;;;;;;;;;;5055922;28;20041;-73
2023/04/22 13:40:26;;;;;;;30.60;13.13;;;;;;;;;;5051905;28;20253;-73
2023/04/22 13:42:51;;;;;;;28.42;12.90;;;;;;;;;;5045588;28;20037;-73
2023/04/22 13:45:16;;;;;;;27.23;13.25;;;;;;;;;;5044877;28;20028;-73
2023/04/22 13:47:42;;;;;;;22.52;11.77;;;;;;;;;;5044960;28;20052;-73
2023/04/22 13:50:08;;;;;;;23.73;11.80;;;;;;;;;;5038158;28;20571;-73
2023/04/22 13:52:34;;;;;;;30.58;14.68;;;;;;;;;;5039314;28;20048;-73
2023/04/22 13:54:59;;;;;;;29.42;13.77;;;;;;;;;;5043825;28;20496;-73
2023/04/22 13:57:24;;;;;;;24.58;11.20;;;;;;;;;;5038488;28;20025;-73
2023/04/22 13:59:50;;;;;;;29.58;14.90;;;;;;;;;;5029906;28;20028;-73
2023/04/22 14:02:15;;;;;;;25.42;12.95;;;;;;;;;;5043463;28;20457;-73
2023/04/22 14:04:41;;;;;;;26.48;12.63;;;;;;;;;;5044362;28;20037;-73
2023/04/22 14:07:06;;;;;;;28.38;14.15;;;;;;;;;;5043542;28;20437;-73
2023/04/22 14:09:33;;;;;;;24.58;11.95;;;;;;;;;;5043637;28;20025;-73
2023/04/22 14:12:00;;;;;;;22.48;10.02;;;;;;;;;;5044315;28;20124;-73
2023/04/22 14:14:25;;;;;;;26.98;13.32;;;;;;;;;;5042278;28;20041;-74